This is the latest recevied weather packets stored in our database for station/object KC5DP. If no packets are shown the sender has not sent any weather packets the latest 1 day(s).
| Time | Temp. | Humidity | Pressure | Rain* | Wind** | Luminosity | Snow |
|---|---|---|---|---|---|---|---|
| 1778032012 | 23.89° C | 84% | 1010.6 hPa | 0 mm | - | 0 W/m² | - |
| 1778031406 | 23.89° C | 83% | 1010.2 hPa | 0 mm | - | 0 W/m² | - |
| 1778030799 | 23.89° C | 83% | 1010.3 hPa | 0 mm | - | 0 W/m² | - |
| 1778030497 | 23.89° C | 83% | 1010.3 hPa | 0 mm | - | 0 W/m² | - |
| 1778030194 | 23.89° C | 83% | 1010.1 hPa | 0 mm | - | 0 W/m² | - |
| 1778029589 | 24.44° C | 82% | 1010.1 hPa | 0 mm | - | 0 W/m² | - |
| 1778028982 | 24.44° C | 81% | 1009.9 hPa | 0 mm | - | 0 W/m² | - |
| 1778028678 | 24.44° C | 82% | 1009.9 hPa | 0 mm | - | 1 W/m² | - |
| 1778028375 | 25° C | 81% | 1009.8 hPa | 0 mm | - | 1 W/m² | - |
| 1778028073 | 25° C | 81% | 1009.9 hPa | 0 mm | - | 2 W/m² | - |
| 1778027769 | 25° C | 80% | 1009.8 hPa | 0 mm | - | 4 W/m² | - |
| 1778027161 | 25° C | 80% | 1009.9 hPa | 0 mm | - | 8 W/m² | - |
| 1778026553 | 25.56° C | 80% | 1009.9 hPa | 0 mm | - | 13 W/m² | - |
| 1778026250 | 25.56° C | 80% | 1009.9 hPa | 0 mm | - | 20 W/m² | - |
| 1778024690 | 25.56° C | 79% | 1009.8 hPa | 0 mm | - | 44 W/m² | - |
| 1778022269 | 26.11° C | 77% | 1009.9 hPa | 0 mm | - | 53 W/m² | - |
| 1778021358 | 26.11° C | 76% | 1009.9 hPa | 0 mm | - | 40 W/m² | - |
| 1778018571 | 26.67° C | 73% | 1009.9 hPa | 0 mm | - | 93 W/m² | - |
| 1778016756 | 27.22° C | 69% | 1009.9 hPa | 0 mm | - | 151 W/m² | - |
| 1778015846 | 27.22° C | 69% | 1010 hPa | 0 mm | - | 96 W/m² | - |
| 1778014028 | 27.22° C | 68% | 1010.3 hPa | 0 mm | - | 144 W/m² | - |
| 1778013424 | 27.78° C | 67% | 1010.4 hPa | 0 mm | - | 208 W/m² | - |
| 1778011907 | 27.78° C | 67% | 1010.6 hPa | 0 mm | - | 190 W/m² | - |
| 1778011605 | 27.78° C | 65% | 1010.6 hPa | 0 mm | - | 273 W/m² | - |
| 1778008877 | 27.78° C | 65% | 1011.1 hPa | 0 mm | - | 339 W/m² | - |
* Rain latest hour (hover to see other rain measurements)
** Current wind speed in m/s (hover to see current wind gust speed)